createdAt,value
2019-01-22T00:00:34.797Z,-4.14
2019-01-22T00:01:42.545Z,-4.13
2019-01-22T00:02:50.537Z,-4.10
2019-01-22T00:03:58.492Z,-4.06
2019-01-22T00:05:09.201Z,-4.01
2019-01-22T00:06:20.407Z,-3.99
2019-01-22T00:07:28.964Z,-3.97
2019-01-22T00:08:37.198Z,-3.96
2019-01-22T00:09:48.244Z,-3.94
2019-01-22T00:10:56.842Z,-3.95
2019-01-22T00:12:04.760Z,-3.95
2019-01-22T00:13:13.572Z,-3.97
2019-01-22T00:14:21.439Z,-3.97
2019-01-22T00:15:32.174Z,-3.98
2019-01-22T00:16:40.571Z,-3.95
2019-01-22T00:17:48.411Z,-3.91
2019-01-22T00:18:57.066Z,-3.89
2019-01-22T00:20:08.391Z,-3.86
2019-01-22T00:21:16.270Z,-3.84
2019-01-22T00:22:24.061Z,-3.82
2019-01-22T00:23:32.309Z,-3.78
2019-01-22T00:24:39.968Z,-3.77
2019-01-22T00:25:47.944Z,-3.74
2019-01-22T00:26:55.939Z,-3.76
2019-01-22T00:28:04.398Z,-3.79
2019-01-22T00:29:44.797Z,-3.75
2019-01-22T00:30:52.774Z,-3.79
2019-01-22T00:32:00.466Z,-3.76
2019-01-22T00:33:08.560Z,-3.71
2019-01-22T00:34:16.464Z,-3.67
2019-01-22T00:35:27.541Z,-3.61
2019-01-22T00:36:39.820Z,-3.54
2019-01-22T00:37:48.553Z,-3.45
2019-01-22T00:38:57.558Z,-3.41
2019-01-22T00:40:07.875Z,-3.40
2019-01-22T00:41:15.565Z,-3.40
2019-01-22T00:42:23.428Z,-3.41
2019-01-22T00:43:32.348Z,-3.41
2019-01-22T00:44:40.192Z,-3.43
2019-01-22T00:45:48.198Z,-3.43
2019-01-22T00:46:57.877Z,-3.44
2019-01-22T00:48:06.948Z,-3.45
2019-01-22T00:49:15.081Z,-3.48
2019-01-22T00:50:23.888Z,-3.55
2019-01-22T00:51:31.789Z,-3.58
2019-01-22T00:52:39.943Z,-3.58
2019-01-22T00:53:47.629Z,-3.56
2019-01-22T00:54:55.665Z,-3.54
2019-01-22T00:56:06.373Z,-3.51
2019-01-22T00:57:14.568Z,-3.46
2019-01-22T00:58:24.014Z,-3.45
2019-01-22T00:59:32.374Z,-3.51
2019-01-22T01:00:41.124Z,-3.55
2019-01-22T01:01:49.566Z,-3.61
2019-01-22T01:02:58.198Z,-3.68
2019-01-22T01:04:06.471Z,-3.77
2019-01-22T01:05:14.837Z,-3.87
2019-01-22T01:06:23.434Z,-3.95
2019-01-22T01:07:31.377Z,-3.97
2019-01-22T01:08:39.651Z,-3.97
2019-01-22T01:09:47.582Z,-3.93
2019-01-22T01:10:56.191Z,-3.90
2019-01-22T01:12:03.959Z,-3.89
2019-01-22T01:13:12.023Z,-3.87
2019-01-22T01:14:20.134Z,-3.84
2019-01-22T01:15:28.015Z,-3.81
2019-01-22T01:16:35.706Z,-3.78
2019-01-22T01:17:43.588Z,-3.75
2019-01-22T01:18:51.914Z,-3.70
2019-01-22T01:20:00.706Z,-3.66
2019-01-22T01:21:08.494Z,-3.62
2019-01-22T01:22:16.076Z,-3.61
2019-01-22T01:23:23.970Z,-3.61
2019-01-22T01:24:31.763Z,-3.63
2019-01-22T01:25:41.001Z,-3.64
2019-01-22T01:26:49.329Z,-3.71
2019-01-22T01:27:57.219Z,-3.81
2019-01-22T01:29:04.901Z,-3.86
2019-01-22T01:30:16.487Z,-3.93
2019-01-22T01:31:24.187Z,-3.97
2019-01-22T01:32:31.821Z,-4.01
2019-01-22T01:33:39.520Z,-4.02
2019-01-22T01:34:47.518Z,-4.06
2019-01-22T01:35:56.308Z,-4.05
2019-01-22T01:37:04.310Z,-4.08
2019-01-22T01:38:12.088Z,-4.09
2019-01-22T01:39:20.202Z,-4.14
2019-01-22T01:40:28.106Z,-4.20
2019-01-22T01:41:36.387Z,-4.30
2019-01-22T01:42:44.643Z,-4.35
2019-01-22T01:43:52.719Z,-4.42
2019-01-22T01:45:00.493Z,-4.44
2019-01-22T01:46:08.031Z,-4.46
2019-01-22T01:47:15.942Z,-4.42
2019-01-22T01:48:23.544Z,-4.41
2019-01-22T01:49:31.163Z,-4.40
2019-01-22T01:50:38.906Z,-4.41
2019-01-22T01:51:46.507Z,-4.41
2019-01-22T01:52:54.496Z,-4.41
2019-01-22T01:54:02.113Z,-4.39
2019-01-22T01:55:12.106Z,-4.36
2019-01-22T01:56:19.666Z,-4.33
2019-01-22T01:57:27.130Z,-4.29
2019-01-22T01:58:34.789Z,-4.26
2019-01-22T01:59:42.778Z,-4.20
2019-01-22T02:00:50.595Z,-4.14
2019-01-22T02:01:58.276Z,-4.10
2019-01-22T02:03:06.247Z,-4.09
2019-01-22T02:04:14.137Z,-4.11
2019-01-22T02:05:22.133Z,-4.10
2019-01-22T02:06:29.850Z,-4.08
2019-01-22T02:07:37.699Z,-4.05
2019-01-22T02:08:45.318Z,-4.01
2019-01-22T02:09:53.129Z,-3.96
2019-01-22T02:11:00.769Z,-3.93
2019-01-22T02:12:08.411Z,-3.90
2019-01-22T02:13:17.067Z,-3.87
2019-01-22T02:14:28.956Z,-3.85
2019-01-22T02:15:56.818Z,-3.84
2019-01-22T02:17:16.168Z,-3.87
2019-01-22T02:18:46.701Z,-3.90
2019-01-22T02:20:05.131Z,-3.89
2019-01-22T02:21:50.026Z,-3.87
2019-01-22T02:23:20.032Z,-3.84
2019-01-22T02:24:35.639Z,-3.83
2019-01-22T02:25:53.592Z,-3.88
2019-01-22T02:27:33.038Z,-3.94
2019-01-22T02:29:03.457Z,-4.00
2019-01-22T02:30:38.422Z,-4.06
2019-01-22T02:32:19.330Z,-4.11
2019-01-22T02:33:55.707Z,-4.17
2019-01-22T02:35:14.701Z,-4.14
2019-01-22T02:36:35.946Z,-4.12
2019-01-22T02:38:12.563Z,-4.07
2019-01-22T02:39:43.051Z,-4.01
2019-01-22T02:41:10.315Z,-3.97
2019-01-22T02:42:28.419Z,-3.93
2019-01-22T02:44:14.399Z,-3.89
2019-01-22T02:45:55.666Z,-3.86
2019-01-22T02:47:25.986Z,-3.86
2019-01-22T02:48:49.994Z,-3.92
2019-01-22T02:50:30.083Z,-3.95
2019-01-22T02:52:03.759Z,-3.97
2019-01-22T02:53:24.548Z,-4.07
2019-01-22T02:54:37.176Z,-4.14
2019-01-22T02:56:07.107Z,-4.19
2019-01-22T02:57:53.962Z,-4.20
2019-01-22T02:59:41.424Z,-4.22
2019-01-22T03:01:19.286Z,-4.25
2019-01-22T03:03:06.895Z,-4.31
2019-01-22T03:04:25.341Z,-4.36
2019-01-22T03:05:50.485Z,-4.41
2019-01-22T03:07:21.636Z,-4.41
2019-01-22T03:08:47.905Z,-4.39
2019-01-22T03:10:12.641Z,-4.40
2019-01-22T03:11:43.585Z,-4.38
2019-01-22T03:13:02.547Z,-4.32
2019-01-22T03:14:27.675Z,-4.32
2019-01-22T03:16:05.769Z,-4.31
2019-01-22T03:17:42.410Z,-4.32
2019-01-22T03:19:06.484Z,-4.32
2019-01-22T03:20:30.871Z,-4.32
2019-01-22T03:21:52.234Z,-4.31
2019-01-22T03:23:16.922Z,-4.34
2019-01-22T03:24:55.128Z,-4.37
2019-01-22T03:26:13.424Z,-4.36
2019-01-22T03:27:28.634Z,-4.36
2019-01-22T03:28:53.339Z,-4.40
2019-01-22T03:30:23.466Z,-4.41
2019-01-22T03:31:50.741Z,-4.40
2019-01-22T03:33:19.791Z,-4.38
2019-01-22T03:34:50.551Z,-4.37
2019-01-22T03:36:11.903Z,-4.39
2019-01-22T03:37:53.246Z,-4.41
2019-01-22T03:39:17.890Z,-4.42
2019-01-22T03:40:33.415Z,-4.42
2019-01-22T03:42:23.971Z,-4.39
2019-01-22T03:43:56.999Z,-4.37
2019-01-22T03:45:31.295Z,-4.36
2019-01-22T03:47:01.869Z,-4.36
2019-01-22T03:48:23.337Z,-4.34
2019-01-22T03:49:35.944Z,-4.37
2019-01-22T03:51:07.901Z,-4.37
2019-01-22T03:52:20.345Z,-4.39
2019-01-22T03:53:38.173Z,-4.42
2019-01-22T03:54:56.250Z,-4.43
2019-01-22T03:56:20.332Z,-4.41
2019-01-22T03:57:35.810Z,-4.43
2019-01-22T03:58:43.959Z,-4.44
2019-01-22T03:59:52.387Z,-4.41
2019-01-22T04:01:04.528Z,-4.38
2019-01-22T04:02:12.339Z,-4.42
2019-01-22T04:03:20.265Z,-4.46
2019-01-22T04:04:28.289Z,-4.49
2019-01-22T04:05:36.007Z,-4.55
2019-01-22T04:06:44.003Z,-4.54
2019-01-22T04:07:51.953Z,-4.54
2019-01-22T04:09:02.592Z,-4.57
2019-01-22T04:10:18.380Z,-4.58
2019-01-22T04:11:28.853Z,-4.56
2019-01-22T04:12:37.177Z,-4.57
2019-01-22T04:13:44.981Z,-4.57
2019-01-22T04:14:52.969Z,-4.57
2019-01-22T04:16:00.921Z,-4.57
2019-01-22T04:17:08.844Z,-4.63
2019-01-22T04:18:17.095Z,-4.64
2019-01-22T04:19:24.994Z,-4.67
2019-01-22T04:20:33.067Z,-4.68
2019-01-22T04:21:40.925Z,-4.68
2019-01-22T04:22:50.354Z,-4.67
2019-01-22T04:24:36.427Z,-4.66
2019-01-22T04:26:05.448Z,-4.65
2019-01-22T04:27:40.458Z,-4.64
2019-01-22T04:28:58.548Z,-4.66
2019-01-22T04:30:23.400Z,-4.73
2019-01-22T04:31:39.050Z,-4.75
2019-01-22T04:32:56.721Z,-4.73
2019-01-22T04:34:11.965Z,-4.71
2019-01-22T04:35:33.525Z,-4.65
2019-01-22T04:37:04.296Z,-4.61
2019-01-22T04:38:31.912Z,-4.58
2019-01-22T04:40:00.383Z,-4.52
2019-01-22T04:41:34.645Z,-4.53
2019-01-22T04:43:15.838Z,-4.53
2019-01-22T04:44:47.949Z,-4.55
2019-01-22T04:46:27.680Z,-4.55
2019-01-22T04:47:43.312Z,-4.61
2019-01-22T04:49:10.718Z,-4.65
2019-01-22T04:50:47.090Z,-4.65
2019-01-22T04:52:15.030Z,-4.63
2019-01-22T04:53:51.380Z,-4.58
2019-01-22T04:55:23.777Z,-4.52
2019-01-22T04:57:03.481Z,-4.46
2019-01-22T04:58:16.359Z,-4.38
2019-01-22T04:59:55.851Z,-4.33
2019-01-22T05:01:35.891Z,-4.33
2019-01-22T05:03:00.851Z,-4.32
2019-01-22T05:04:28.548Z,-4.31
2019-01-22T05:05:53.185Z,-4.31
2019-01-22T05:07:11.674Z,-4.34
2019-01-22T05:08:39.302Z,-4.37
2019-01-22T05:10:30.669Z,-4.40
2019-01-22T05:13:16.907Z,-4.39
2019-01-22T05:14:41.802Z,-4.44
2019-01-22T05:16:09.936Z,-4.45
2019-01-22T05:17:48.035Z,-4.48
2019-01-22T05:19:06.630Z,-4.49
2019-01-22T05:20:22.078Z,-4.56
2019-01-22T05:22:14.476Z,-4.59
2019-01-22T05:23:32.153Z,-4.63
2019-01-22T05:24:57.018Z,-4.61
2019-01-22T05:26:15.705Z,-4.59
2019-01-22T05:27:53.343Z,-4.58
2019-01-22T05:29:29.602Z,-4.61
2019-01-22T05:30:51.026Z,-4.61
2019-01-22T05:32:03.448Z,-4.59
2019-01-22T05:33:46.287Z,-4.58
2019-01-22T05:35:34.708Z,-4.56
2019-01-22T05:37:05.766Z,-4.56
2019-01-22T05:38:18.389Z,-4.57
2019-01-22T05:39:36.355Z,-4.56
2019-01-22T05:41:20.307Z,-4.57
2019-01-22T05:42:47.438Z,-4.56
2019-01-22T05:44:33.327Z,-4.60
2019-01-22T05:45:54.531Z,-4.59
2019-01-22T05:47:24.071Z,-4.60
2019-01-22T05:48:39.591Z,-4.58
2019-01-22T05:49:54.864Z,-4.55
2019-01-22T05:51:17.809Z,-4.53
2019-01-22T05:52:42.377Z,-4.51
2019-01-22T05:54:24.988Z,-4.54
2019-01-22T05:55:45.078Z,-4.61
2019-01-22T05:56:57.582Z,-4.66
2019-01-22T05:58:12.886Z,-4.72
2019-01-22T05:59:39.966Z,-4.77
2019-01-22T06:00:56.015Z,-4.80
2019-01-22T06:02:14.079Z,-4.78
2019-01-22T06:03:35.633Z,-4.74
2019-01-22T06:04:57.235Z,-4.68
2019-01-22T06:06:39.619Z,-4.65
2019-01-22T06:08:10.090Z,-4.64
2019-01-22T06:09:28.524Z,-4.67
2019-01-22T06:11:09.587Z,-4.70
2019-01-22T06:12:36.165Z,-4.75
2019-01-22T06:13:55.064Z,-4.78
2019-01-22T06:15:25.851Z,-4.79
2019-01-22T06:16:59.287Z,-4.79
2019-01-22T06:18:39.404Z,-4.79
2019-01-22T06:20:09.343Z,-4.80
2019-01-22T06:21:41.994Z,-4.83
2019-01-22T06:22:58.051Z,-4.84
2019-01-22T06:24:33.312Z,-4.80
2019-01-22T06:25:52.868Z,-4.77
2019-01-22T06:27:14.244Z,-4.76
2019-01-22T06:28:32.744Z,-4.74
2019-01-22T06:30:31.354Z,-4.70
2019-01-22T06:31:55.901Z,-4.68
2019-01-22T06:33:17.319Z,-4.67
2019-01-22T06:34:53.988Z,-4.63
2019-01-22T06:36:09.763Z,-4.61
2019-01-22T06:37:34.578Z,-4.61
2019-01-22T06:38:52.997Z,-4.61
2019-01-22T06:40:14.753Z,-4.60
2019-01-22T06:41:36.628Z,-4.62
2019-01-22T06:43:06.057Z,-4.63
2019-01-22T06:44:29.892Z,-4.62
2019-01-22T06:46:01.340Z,-4.61
2019-01-22T06:47:20.079Z,-4.61
2019-01-22T06:48:59.793Z,-4.59
2019-01-22T06:50:36.739Z,-4.60
2019-01-22T06:52:17.036Z,-4.60
2019-01-22T06:53:36.147Z,-4.60
2019-01-22T06:55:00.934Z,-4.62
2019-01-22T06:56:25.519Z,-4.62
2019-01-22T06:57:49.900Z,-4.64
2019-01-22T06:59:36.880Z,-4.64
2019-01-22T07:01:02.109Z,-4.62
2019-01-22T07:02:20.718Z,-4.62
2019-01-22T07:04:10.603Z,-4.63
2019-01-22T07:05:38.122Z,-4.68
2019-01-22T07:07:12.080Z,-4.75
2019-01-22T07:08:43.492Z,-4.76
2019-01-22T07:10:27.034Z,-4.74
2019-01-22T07:11:40.053Z,-4.73
2019-01-22T07:13:01.750Z,-4.73
2019-01-22T07:14:29.251Z,-4.86
2019-01-22T07:15:47.850Z,-4.89
2019-01-22T07:17:14.253Z,-4.86
2019-01-22T07:18:42.103Z,-4.84
2019-01-22T07:20:09.822Z,-4.80
2019-01-22T07:21:48.445Z,-4.78
2019-01-22T07:23:09.823Z,-4.76
2019-01-22T07:24:46.863Z,-4.76
2019-01-22T07:26:07.182Z,-4.76
2019-01-22T07:27:38.029Z,-4.77
2019-01-22T07:29:06.759Z,-4.75
2019-01-22T07:30:31.454Z,-4.72
2019-01-22T07:31:44.354Z,-4.70
2019-01-22T07:33:22.833Z,-4.68
2019-01-22T07:34:50.288Z,-4.64
2019-01-22T07:36:24.030Z,-4.60
2019-01-22T07:37:39.392Z,-4.53
2019-01-22T07:39:26.937Z,-4.53
2019-01-22T07:40:42.275Z,-4.53
2019-01-22T07:42:12.902Z,-4.57
2019-01-22T07:43:54.681Z,-4.53
2019-01-22T07:45:28.080Z,-4.51
2019-01-22T07:47:13.621Z,-4.43
2019-01-22T07:48:26.512Z,-4.36
2019-01-22T07:49:54.555Z,-4.27
2019-01-22T07:51:10.717Z,-4.25
2019-01-22T07:52:44.707Z,-4.22
2019-01-22T07:54:08.586Z,-4.23
2019-01-22T07:55:33.259Z,-4.24
2019-01-22T07:57:10.581Z,-4.24
2019-01-22T07:58:41.385Z,-4.24
2019-01-22T07:59:57.154Z,-4.26
2019-01-22T08:01:35.269Z,-4.24
2019-01-22T08:02:53.492Z,-4.23
2019-01-22T08:04:13.264Z,-4.20
2019-01-22T08:05:36.156Z,-4.11
2019-01-22T08:06:56.725Z,-4.07
2019-01-22T08:08:24.146Z,-4.04
2019-01-22T08:10:17.990Z,-4.08
2019-01-22T08:11:48.435Z,-4.12
2019-01-22T08:13:26.802Z,-4.13
2019-01-22T08:14:48.762Z,-4.12
2019-01-22T08:16:26.632Z,-4.10
2019-01-22T08:17:42.401Z,-4.09
2019-01-22T08:19:25.149Z,-4.02
2019-01-22T08:21:02.532Z,-3.96
2019-01-22T08:22:27.335Z,-3.92
2019-01-22T08:24:13.548Z,-3.89
2019-01-22T08:25:46.734Z,-3.85
2019-01-22T08:27:12.090Z,-3.84
2019-01-22T08:28:36.589Z,-3.86
2019-01-22T08:29:50.971Z,-3.84
2019-01-22T08:31:23.220Z,-3.82
2019-01-22T08:33:00.449Z,-3.83
2019-01-22T08:34:38.251Z,-3.81
2019-01-22T08:36:03.406Z,-3.84
2019-01-22T08:37:30.805Z,-3.84
2019-01-22T08:38:49.336Z,-3.84
2019-01-22T08:40:32.909Z,-3.87
2019-01-22T08:41:51.486Z,-3.86
2019-01-22T08:43:19.412Z,-3.81
2019-01-22T08:44:53.274Z,-3.75
2019-01-22T08:46:40.771Z,-3.72
2019-01-22T08:48:08.494Z,-3.69
2019-01-22T08:49:39.179Z,-3.59
2019-01-22T08:51:09.805Z,-3.58
2019-01-22T08:52:31.386Z,-3.61
2019-01-22T08:54:04.805Z,-3.65
2019-01-22T08:55:55.112Z,-3.67
2019-01-22T08:57:28.962Z,-3.63
2019-01-22T08:58:44.054Z,-3.62
2019-01-22T09:00:05.772Z,-3.59
2019-01-22T09:01:39.056Z,-3.62
2019-01-22T09:03:13.262Z,-3.66
2019-01-22T09:04:51.268Z,-3.67
2019-01-22T09:06:15.439Z,-3.66
2019-01-22T09:08:10.016Z,-3.67
2019-01-22T09:09:37.533Z,-3.65
2019-01-22T09:11:19.095Z,-3.46
2019-01-22T09:12:46.371Z,-3.20
2019-01-22T09:14:13.126Z,-2.77
2019-01-22T09:15:49.889Z,-2.42
2019-01-22T09:17:43.217Z,-2.23
2019-01-22T09:19:12.332Z,-2.12
2019-01-22T09:20:44.522Z,-2.13
2019-01-22T09:22:38.056Z,-2.16
2019-01-22T09:23:56.271Z,-2.21
2019-01-22T09:25:14.857Z,-2.28
2019-01-22T09:26:30.570Z,-2.36
2019-01-22T09:28:28.914Z,-2.43
2019-01-22T09:29:44.380Z,-2.52
2019-01-22T09:30:59.508Z,-2.68
2019-01-22T09:32:26.420Z,-2.79
2019-01-22T09:33:57.298Z,-2.84
2019-01-22T09:35:34.256Z,-2.90
2019-01-22T09:36:49.544Z,-2.97
2019-01-22T09:37:58.069Z,-3.03
2019-01-22T09:39:10.299Z,-3.05
2019-01-22T09:40:18.143Z,-3.08
2019-01-22T09:41:26.645Z,-3.12
2019-01-22T09:42:34.709Z,-3.12
2019-01-22T09:43:46.581Z,-3.20
2019-01-22T09:44:54.547Z,-3.25
2019-01-22T09:46:02.002Z,-3.29
2019-01-22T09:47:10.096Z,-3.34
2019-01-22T09:48:17.807Z,-3.36
2019-01-22T09:49:25.724Z,-3.35
2019-01-22T09:50:34.288Z,-3.31
2019-01-22T09:51:42.372Z,-3.28
2019-01-22T09:52:50.479Z,-3.28
2019-01-22T09:53:58.956Z,-3.28
2019-01-22T09:55:11.530Z,-3.29
2019-01-22T09:56:19.489Z,-3.31
2019-01-22T09:57:27.176Z,-3.37
2019-01-22T09:58:34.983Z,-3.37
2019-01-22T09:59:42.957Z,-3.36
2019-01-22T10:00:50.962Z,-3.34
2019-01-22T10:01:58.593Z,-3.32
2019-01-22T10:03:06.955Z,-3.29
2019-01-22T10:04:14.669Z,-3.30
2019-01-22T10:05:22.432Z,-3.32
2019-01-22T10:06:30.696Z,-3.31
2019-01-22T10:07:38.678Z,-3.29
2019-01-22T10:08:46.506Z,-3.30
2019-01-22T10:09:54.744Z,-3.29
2019-01-22T10:11:02.672Z,-3.27
2019-01-22T10:12:10.817Z,-3.24
2019-01-22T10:13:18.688Z,-3.19
2019-01-22T10:14:26.512Z,-3.16
2019-01-22T10:15:34.261Z,-3.18
2019-01-22T10:16:41.970Z,-3.24
2019-01-22T10:17:50.331Z,-3.26
2019-01-22T10:18:58.587Z,-3.25
2019-01-22T10:20:11.149Z,-3.25
2019-01-22T10:21:19.053Z,-3.29
2019-01-22T10:22:26.673Z,-3.36
2019-01-22T10:23:34.642Z,-3.38
2019-01-22T10:24:42.475Z,-3.37
2019-01-22T10:25:50.270Z,-3.33
2019-01-22T10:26:58.202Z,-3.30
2019-01-22T10:28:06.401Z,-3.29
2019-01-22T10:29:14.430Z,-3.37
2019-01-22T10:30:25.262Z,-3.40
2019-01-22T10:31:33.147Z,-3.41
2019-01-22T10:32:40.825Z,-3.40
2019-01-22T10:33:48.549Z,-3.42
2019-01-22T10:34:56.256Z,-3.47
2019-01-22T10:36:04.211Z,-3.54
2019-01-22T10:37:11.977Z,-3.66
2019-01-22T10:38:19.753Z,-3.67
2019-01-22T10:39:27.688Z,-3.69
2019-01-22T10:40:35.431Z,-3.65
2019-01-22T10:41:43.382Z,-3.58
2019-01-22T10:42:51.371Z,-3.54
2019-01-22T10:43:59.147Z,-3.49
2019-01-22T10:45:11.660Z,-3.46
2019-01-22T10:46:19.356Z,-3.45
2019-01-22T10:47:27.544Z,-3.42
2019-01-22T10:48:35.472Z,-3.40
2019-01-22T10:49:43.275Z,-3.43
2019-01-22T10:50:51.329Z,-3.43
2019-01-22T10:51:59.017Z,-3.41
2019-01-22T10:53:06.788Z,-3.43
2019-01-22T10:54:14.473Z,-3.43
2019-01-22T10:55:22.373Z,-3.40
2019-01-22T10:56:30.048Z,-3.40
2019-01-22T10:57:37.844Z,-3.39
2019-01-22T10:58:45.614Z,-3.39
2019-01-22T10:59:53.206Z,-3.38
2019-01-22T11:01:01.317Z,-3.39
2019-01-22T11:02:09.146Z,-3.40
2019-01-22T11:03:17.221Z,-3.41
2019-01-22T11:04:25.464Z,-3.39
2019-01-22T11:05:36.664Z,-3.36
2019-01-22T11:06:44.398Z,-3.34
2019-01-22T11:07:52.360Z,-3.31
2019-01-22T11:09:00.081Z,-3.30
2019-01-22T11:10:09.196Z,-3.32
2019-01-22T11:11:20.230Z,-3.31
2019-01-22T11:12:28.022Z,-3.27
2019-01-22T11:13:35.719Z,-3.24
2019-01-22T11:14:43.536Z,-3.19
2019-01-22T11:15:51.546Z,-3.14
2019-01-22T11:16:59.486Z,-3.06
2019-01-22T11:18:07.438Z,-3.03
2019-01-22T11:19:15.388Z,-3.01
2019-01-22T11:20:29.894Z,-2.98
2019-01-22T11:21:38.119Z,-2.95
2019-01-22T11:22:45.817Z,-2.89
2019-01-22T11:23:53.599Z,-2.84
2019-01-22T11:25:01.205Z,-2.76
2019-01-22T11:26:08.958Z,-2.71
2019-01-22T11:27:16.904Z,-2.67
2019-01-22T11:28:24.772Z,-2.64
2019-01-22T11:29:32.548Z,-2.64
2019-01-22T11:30:40.471Z,-2.61
2019-01-22T11:31:48.375Z,-2.61
2019-01-22T11:32:59.238Z,-2.60
2019-01-22T11:34:07.602Z,-2.56
2019-01-22T11:35:18.652Z,-2.55
2019-01-22T11:36:26.331Z,-2.62
2019-01-22T11:37:33.783Z,-2.70
2019-01-22T11:38:41.763Z,-2.82
2019-01-22T11:39:49.430Z,-2.94
2019-01-22T11:40:56.943Z,-3.01
2019-01-22T11:42:04.972Z,-3.03
2019-01-22T11:43:12.574Z,-3.02
2019-01-22T11:44:20.504Z,-2.95
2019-01-22T11:45:29.679Z,-2.84
2019-01-22T11:46:37.596Z,-2.68
2019-01-22T11:47:45.111Z,-2.59
2019-01-22T11:48:53.043Z,-2.53
2019-01-22T11:50:00.827Z,-2.44
2019-01-22T11:51:08.336Z,-2.36
2019-01-22T11:52:16.309Z,-2.32
2019-01-22T11:53:25.577Z,-2.29
2019-01-22T11:54:33.494Z,-2.37
2019-01-22T11:55:41.343Z,-2.47
2019-01-22T11:56:48.963Z,-2.59
2019-01-22T11:57:56.900Z,-2.63
2019-01-22T11:59:04.840Z,-2.60
2019-01-22T12:00:26.702Z,-2.60
2019-01-22T12:01:35.110Z,-2.62
2019-01-22T12:02:42.439Z,-2.64
2019-01-22T12:03:50.429Z,-2.69
2019-01-22T12:04:58.345Z,-2.72
2019-01-22T12:06:06.599Z,-2.73
2019-01-22T12:07:14.223Z,-2.74
2019-01-22T12:08:22.288Z,-2.72
2019-01-22T12:09:30.252Z,-2.67
2019-01-22T12:10:37.858Z,-2.62
2019-01-22T12:11:45.716Z,-2.54
2019-01-22T12:12:53.667Z,-2.43
2019-01-22T12:14:01.721Z,-2.40
2019-01-22T12:15:16.355Z,-2.35
2019-01-22T12:16:23.983Z,-2.33
2019-01-22T12:17:31.849Z,-2.28
2019-01-22T12:18:39.772Z,-2.29
2019-01-22T12:19:48.224Z,-2.30
2019-01-22T12:20:56.222Z,-2.25
2019-01-22T12:22:04.065Z,-2.19
2019-01-22T12:23:11.695Z,-2.13
2019-01-22T12:24:19.994Z,-2.10
2019-01-22T12:25:27.748Z,-2.07
2019-01-22T12:26:35.749Z,-2.06
2019-01-22T12:27:43.738Z,-2.05
2019-01-22T12:28:51.434Z,-2.04
2019-01-22T12:29:59.488Z,-2.02
2019-01-22T12:31:07.168Z,-2.03
2019-01-22T12:32:15.652Z,-2.06
2019-01-22T12:33:23.395Z,-2.14
2019-01-22T12:34:32.108Z,-2.18
2019-01-22T12:35:39.960Z,-2.19
2019-01-22T12:36:48.137Z,-2.18
2019-01-22T12:37:56.777Z,-2.16
2019-01-22T12:39:06.908Z,-2.23
2019-01-22T12:40:18.649Z,-2.27
2019-01-22T12:41:26.822Z,-2.33
2019-01-22T12:42:34.612Z,-2.35
2019-01-22T12:43:42.661Z,-2.35
2019-01-22T12:44:50.779Z,-2.32
2019-01-22T12:45:58.698Z,-2.26
2019-01-22T12:47:06.560Z,-2.26
2019-01-22T12:48:14.357Z,-2.33
2019-01-22T12:49:22.249Z,-2.36
2019-01-22T12:50:30.188Z,-2.41
2019-01-22T12:51:40.322Z,-2.40
2019-01-22T12:52:48.513Z,-2.41
2019-01-22T12:53:57.125Z,-2.40
2019-01-22T12:55:06.356Z,-2.40
2019-01-22T12:56:14.205Z,-2.39
2019-01-22T12:57:22.300Z,-2.36
2019-01-22T12:58:30.502Z,-2.34
2019-01-22T12:59:38.274Z,-2.34
2019-01-22T13:00:46.488Z,-2.30
2019-01-22T13:01:54.809Z,-2.25
2019-01-22T13:03:02.830Z,-2.13
2019-01-22T13:04:10.835Z,-2.00
2019-01-22T13:05:23.317Z,-1.94
2019-01-22T13:06:31.058Z,-1.90
2019-01-22T13:07:39.178Z,-1.94
2019-01-22T13:08:47.219Z,-2.05
2019-01-22T13:09:54.803Z,-2.15
2019-01-22T13:11:03.188Z,-2.24
2019-01-22T13:12:11.443Z,-2.31
2019-01-22T13:13:20.521Z,-2.36
2019-01-22T13:14:28.984Z,-2.38
2019-01-22T13:15:36.954Z,-2.41
2019-01-22T13:16:44.915Z,-2.52
2019-01-22T13:17:52.685Z,-2.58
2019-01-22T13:19:00.766Z,-2.66
2019-01-22T13:20:18.417Z,-2.72
2019-01-22T13:21:27.010Z,-2.73
2019-01-22T13:22:36.855Z,-2.71
2019-01-22T13:23:44.818Z,-2.70
2019-01-22T13:24:52.704Z,-2.65
2019-01-22T13:26:00.874Z,-2.60
2019-01-22T13:27:08.664Z,-2.56
2019-01-22T13:28:16.457Z,-2.55
2019-01-22T13:29:25.639Z,-2.57
2019-01-22T13:30:35.830Z,-2.64
2019-01-22T13:31:45.345Z,-2.71
2019-01-22T13:32:54.215Z,-2.74
2019-01-22T13:34:02.404Z,-2.77
2019-01-22T13:35:10.638Z,-2.77
2019-01-22T13:36:18.317Z,-2.79
2019-01-22T13:37:26.582Z,-2.81
2019-01-22T13:38:34.715Z,-2.82
2019-01-22T13:39:42.611Z,-2.82
2019-01-22T13:40:52.266Z,-2.86
2019-01-22T13:42:00.055Z,-2.91
2019-01-22T13:43:08.596Z,-2.94
2019-01-22T13:44:16.608Z,-2.99
2019-01-22T13:45:37.221Z,-3.03
2019-01-22T13:46:45.032Z,-3.07
2019-01-22T13:47:54.522Z,-3.12
2019-01-22T13:49:02.845Z,-3.13
2019-01-22T13:50:18.201Z,-3.21
2019-01-22T13:51:25.909Z,-3.29
2019-01-22T13:52:33.974Z,-3.37
2019-01-22T13:53:41.859Z,-3.46
2019-01-22T13:54:49.987Z,-3.56
2019-01-22T13:55:57.827Z,-3.64
2019-01-22T13:57:05.846Z,-3.73
2019-01-22T13:58:13.938Z,-3.77
2019-01-22T13:59:21.737Z,-3.79
2019-01-22T14:00:30.626Z,-3.80
2019-01-22T14:01:38.689Z,-3.81
2019-01-22T14:02:46.630Z,-3.84
2019-01-22T14:03:54.554Z,-3.87
2019-01-22T14:05:02.623Z,-3.93
2019-01-22T14:06:10.583Z,-3.95
2019-01-22T14:07:18.657Z,-3.98
2019-01-22T14:08:26.532Z,-4.02
2019-01-22T14:09:34.337Z,-4.05
2019-01-22T14:10:42.108Z,-4.10
2019-01-22T14:11:50.070Z,-4.17
2019-01-22T14:12:58.181Z,-4.24
2019-01-22T14:14:06.195Z,-4.29
2019-01-22T14:15:29.958Z,-4.34
2019-01-22T14:16:37.695Z,-4.38
2019-01-22T14:17:45.473Z,-4.41
2019-01-22T14:18:53.361Z,-4.40
2019-01-22T14:20:01.694Z,-4.35
2019-01-22T14:21:09.744Z,-4.30
2019-01-22T14:22:18.091Z,-4.28
2019-01-22T14:23:26.489Z,-4.26
2019-01-22T14:24:34.242Z,-4.30
2019-01-22T14:25:41.875Z,-4.31
2019-01-22T14:26:50.182Z,-4.36
2019-01-22T14:27:58.186Z,-4.41
2019-01-22T14:29:06.720Z,-4.48
2019-01-22T14:30:22.012Z,-4.53
2019-01-22T14:31:32.087Z,-4.55
2019-01-22T14:32:39.444Z,-4.54
2019-01-22T14:33:47.562Z,-4.51
2019-01-22T14:34:55.644Z,-4.47
2019-01-22T14:36:03.602Z,-4.45
2019-01-22T14:37:11.393Z,-4.42
2019-01-22T14:38:19.329Z,-4.42
2019-01-22T14:39:27.583Z,-4.41
2019-01-22T14:40:35.495Z,-4.39
2019-01-22T14:41:43.401Z,-4.37
2019-01-22T14:42:51.759Z,-4.37
2019-01-22T14:43:59.758Z,-4.37
2019-01-22T14:45:17.391Z,-4.39
2019-01-22T14:46:25.271Z,-4.37
2019-01-22T14:47:35.095Z,-4.34
2019-01-22T14:48:43.137Z,-4.32
2019-01-22T14:49:51.914Z,-4.33
2019-01-22T14:51:00.396Z,-4.45
2019-01-22T14:52:09.589Z,-4.54
2019-01-22T14:53:17.344Z,-4.62
2019-01-22T14:54:25.647Z,-4.65
2019-01-22T14:55:33.869Z,-4.68
2019-01-22T14:56:42.656Z,-4.69
2019-01-22T14:57:50.852Z,-4.67
2019-01-22T14:58:59.043Z,-4.68
2019-01-22T15:00:15.498Z,-4.71
2019-01-22T15:01:23.800Z,-4.79
2019-01-22T15:02:32.144Z,-4.88
2019-01-22T15:03:41.454Z,-4.93
2019-01-22T15:04:50.080Z,-4.95
2019-01-22T15:05:57.766Z,-4.94
2019-01-22T15:07:05.494Z,-4.91
2019-01-22T15:08:13.991Z,-4.89
2019-01-22T15:09:21.749Z,-4.86
2019-01-22T15:10:29.442Z,-4.84
2019-01-22T15:11:37.242Z,-4.84
2019-01-22T15:12:46.834Z,-4.84
2019-01-22T15:13:55.584Z,-4.85
2019-01-22T15:15:03.766Z,-4.85
2019-01-22T15:16:12.405Z,-4.95
2019-01-22T15:17:21.044Z,-5.03
2019-01-22T15:18:29.181Z,-5.18
2019-01-22T15:19:37.001Z,-5.29
2019-01-22T15:20:45.021Z,-5.40
2019-01-22T15:21:54.124Z,-5.52
2019-01-22T15:23:02.599Z,-5.55
2019-01-22T15:24:10.814Z,-5.59
2019-01-22T15:25:18.796Z,-5.58
2019-01-22T15:26:26.813Z,-5.57
2019-01-22T15:27:36.108Z,-5.53
2019-01-22T15:28:45.563Z,-5.50
2019-01-22T15:29:55.593Z,-5.48
2019-01-22T15:31:03.909Z,-5.50
2019-01-22T15:32:11.707Z,-5.53
2019-01-22T15:33:20.044Z,-5.56
2019-01-22T15:34:28.547Z,-5.59
2019-01-22T15:35:36.709Z,-5.65
2019-01-22T15:36:45.422Z,-5.66
2019-01-22T15:37:54.224Z,-5.68
2019-01-22T15:39:02.780Z,-5.71
2019-01-22T15:40:16.548Z,-5.76
2019-01-22T15:41:25.169Z,-5.79
2019-01-22T15:42:34.025Z,-5.80
2019-01-22T15:43:42.358Z,-5.85
2019-01-22T15:44:50.803Z,-5.91
2019-01-22T15:45:59.041Z,-5.94
2019-01-22T15:47:07.199Z,-5.91
2019-01-22T15:48:15.497Z,-5.88
2019-01-22T15:49:24.698Z,-5.84
2019-01-22T15:50:33.332Z,-5.79
2019-01-22T15:51:42.007Z,-5.73
2019-01-22T15:52:50.501Z,-5.68
2019-01-22T15:53:58.648Z,-5.68
2019-01-22T15:55:14.266Z,-5.64
2019-01-22T15:56:22.733Z,-5.61
2019-01-22T15:57:31.731Z,-5.60
2019-01-22T15:58:41.329Z,-5.53
2019-01-22T15:59:49.518Z,-5.50
2019-01-22T16:00:57.976Z,-5.47
2019-01-22T16:02:06.168Z,-5.44
2019-01-22T16:03:14.780Z,-5.42
2019-01-22T16:04:22.911Z,-5.40
2019-01-22T16:05:30.978Z,-5.38
2019-01-22T16:06:39.133Z,-5.36
2019-01-22T16:07:47.399Z,-5.34
2019-01-22T16:08:55.869Z,-5.30
2019-01-22T16:10:04.675Z,-5.27
2019-01-22T16:11:13.655Z,-5.28
2019-01-22T16:12:22.316Z,-5.25
2019-01-22T16:13:30.876Z,-5.25
2019-01-22T16:14:39.539Z,-5.25
2019-01-22T16:15:48.110Z,-5.25
2019-01-22T16:16:56.656Z,-5.24
2019-01-22T16:18:05.387Z,-5.24
2019-01-22T16:19:14.125Z,-5.21